createdAt,value
2019-02-08T00:00:04.970Z,92.4
2019-02-08T00:01:03.277Z,92.6
2019-02-08T00:02:03.255Z,91.4
2019-02-08T00:03:03.773Z,91.9
2019-02-08T00:04:03.190Z,91.4
2019-02-08T00:05:03.861Z,91.2
2019-02-08T00:06:02.914Z,91.7
2019-02-08T00:07:04.607Z,91
2019-02-08T00:08:03.239Z,92.1
2019-02-08T00:09:03.633Z,91
2019-02-08T00:10:03.673Z,91.9
2019-02-08T00:11:03.385Z,91.4
2019-02-08T00:12:02.837Z,91.9
2019-02-08T00:13:03.349Z,93.1
2019-02-08T00:14:03.483Z,91.4
2019-02-08T00:15:05.108Z,92.1
2019-02-08T00:16:03.528Z,91.9
2019-02-08T00:17:03.358Z,91.7
2019-02-08T00:18:03.081Z,92.1
2019-02-08T00:19:02.993Z,91.7
2019-02-08T00:20:03.562Z,92.1
2019-02-08T00:21:02.509Z,91
2019-02-08T00:22:04.471Z,92.6
2019-02-08T00:23:02.730Z,92.1
2019-02-08T00:24:03.364Z,91.2
2019-02-08T00:25:03.766Z,92.1
2019-02-08T00:26:03.096Z,93.1
2019-02-08T00:27:03.598Z,91.2
2019-02-08T00:28:03.163Z,91.7
2019-02-08T00:29:03.257Z,92.6
2019-02-08T00:30:04.466Z,92.8
2019-02-08T00:31:03.540Z,93.5
2019-02-08T00:32:03.622Z,95.4
2019-02-08T00:33:03.060Z,95.2
2019-02-08T00:34:03.827Z,94.5
2019-02-08T00:35:03.412Z,94.9
2019-02-08T00:36:03.793Z,94
2019-02-08T00:37:04.120Z,94.9
2019-02-08T00:38:03.558Z,96.1
2019-02-08T00:39:03.437Z,93.5
2019-02-08T00:40:03.074Z,95.4
2019-02-08T00:41:03.398Z,96.3
2019-02-08T00:42:03.123Z,94.7
2019-02-08T00:43:03.437Z,96.1
2019-02-08T00:44:03.002Z,95.9
2019-02-08T00:45:04.925Z,95.6
2019-02-08T00:46:03.651Z,94.2
2019-02-08T00:47:03.611Z,94.7
2019-02-08T00:48:03.132Z,95.6
2019-02-08T00:49:03.383Z,97.3
2019-02-08T00:50:03.780Z,95.6
2019-02-08T00:51:03.143Z,95.9
2019-02-08T00:52:04.398Z,97
2019-02-08T00:53:48.238Z,97
2019-02-08T00:54:03.832Z,97
2019-02-08T00:55:03.868Z,97.5
2019-02-08T00:56:03.375Z,96.1
2019-02-08T00:57:03.905Z,95.4
2019-02-08T00:58:03.313Z,95.2
2019-02-08T00:59:03.632Z,94.9
2019-02-08T01:00:03.504Z,95.2
2019-02-08T01:01:03.834Z,94
2019-02-08T01:02:03.106Z,95.2
2019-02-08T01:03:03.259Z,93.3
2019-02-08T01:04:03.599Z,94.9
2019-02-08T01:05:01.871Z,94.2
2019-02-08T01:06:03.794Z,95.2
2019-02-08T01:07:04.428Z,94.7
2019-02-08T01:08:03.885Z,95.4
2019-02-08T01:09:03.217Z,94
2019-02-08T01:10:03.763Z,93.1
2019-02-08T01:11:02.940Z,95.2
2019-02-08T01:12:03.574Z,94
2019-02-08T01:13:03.068Z,95.2
2019-02-08T01:14:03.700Z,93.8
2019-02-08T01:15:03.137Z,95.2
2019-02-08T01:16:03.196Z,94.5
2019-02-08T01:17:03.791Z,95.6
2019-02-08T01:18:03.479Z,95.2
2019-02-08T01:19:02.913Z,95.2
2019-02-08T01:20:03.367Z,95.6
2019-02-08T01:21:03.828Z,95.6
2019-02-08T01:22:04.734Z,96.3
2019-02-08T01:23:03.453Z,97.5
2019-02-08T01:24:03.119Z,95.4
2019-02-08T01:25:03.555Z,96.6
2019-02-08T01:26:03.008Z,96.3
2019-02-08T01:27:02.972Z,94.7
2019-02-08T01:28:03.136Z,94.7
2019-02-08T01:29:02.920Z,93.8
2019-02-08T01:30:03.022Z,94.9
2019-02-08T01:31:03.424Z,93.5
2019-02-08T01:32:03.396Z,94
2019-02-08T01:33:03.426Z,91.4
2019-02-08T01:34:02.794Z,93.1
2019-02-08T01:35:03.289Z,91.9
2019-02-08T01:36:02.950Z,93.3
2019-02-08T01:37:03.441Z,93.5
2019-02-08T01:38:03.660Z,95.2
2019-02-08T01:39:03.654Z,92.8
2019-02-08T01:40:03.170Z,93.1
2019-02-08T01:41:03.278Z,94.5
2019-02-08T01:42:02.876Z,92.8
2019-02-08T01:43:03.325Z,94.2
2019-02-08T01:44:03.612Z,94.2
2019-02-08T01:45:03.100Z,94.2
2019-02-08T01:46:03.617Z,94
2019-02-08T01:47:02.869Z,92.6
2019-02-08T01:48:03.622Z,93.3
2019-02-08T01:49:03.717Z,94.5
2019-02-08T01:50:03.108Z,94
2019-02-08T01:51:03.832Z,92.6
2019-02-08T01:52:03.462Z,93.1
2019-02-08T01:53:02.793Z,93.8
2019-02-08T01:54:03.492Z,92.1
2019-02-08T01:55:03.655Z,92.8
2019-02-08T01:56:03.768Z,92.4
2019-02-08T01:57:03.459Z,91.4
2019-02-08T01:58:03.280Z,91.7
2019-02-08T01:59:03.432Z,90.7
2019-02-08T02:00:03.029Z,90.3
2019-02-08T02:01:03.089Z,92.4
2019-02-08T02:02:03.006Z,90.3
2019-02-08T02:03:03.547Z,90.7
2019-02-08T02:04:02.903Z,89.1
2019-02-08T02:05:03.503Z,90
2019-02-08T02:06:03.891Z,88.6
2019-02-08T02:07:03.227Z,88.9
2019-02-08T02:08:03.706Z,89.3
2019-02-08T02:09:03.072Z,89.3
2019-02-08T02:10:03.650Z,87
2019-02-08T02:11:03.164Z,87.9
2019-02-08T02:12:03.351Z,87.7
2019-02-08T02:13:03.802Z,89.3
2019-02-08T02:14:03.350Z,89.6
2019-02-08T02:15:03.348Z,89.8
2019-02-08T02:16:04.419Z,88.4
2019-02-08T02:17:02.776Z,89.6
2019-02-08T02:18:03.371Z,89.1
2019-02-08T02:19:03.738Z,91.2
2019-02-08T02:20:03.444Z,90
2019-02-08T02:21:03.571Z,90.5
2019-02-08T02:22:03.763Z,88.9
2019-02-08T02:23:03.574Z,88.4
2019-02-08T02:24:03.665Z,87.9
2019-02-08T02:25:03.347Z,87.9
2019-02-08T02:26:03.056Z,88.6
2019-02-08T02:27:03.561Z,87.2
2019-02-08T02:28:03.076Z,89.3
2019-02-08T02:29:03.444Z,88.2
2019-02-08T02:30:03.688Z,87.9
2019-02-08T02:31:03.207Z,89.3
2019-02-08T02:32:03.521Z,87.5
2019-02-08T02:33:03.565Z,87.2
2019-02-08T02:34:03.369Z,88.9
2019-02-08T02:35:03.552Z,86.8
2019-02-08T02:36:03.132Z,89.6
2019-02-08T02:37:03.677Z,85.8
2019-02-08T02:38:03.174Z,87.2
2019-02-08T02:39:03.773Z,86.3
2019-02-08T02:40:03.261Z,84.9
2019-02-08T02:41:03.296Z,85.6
2019-02-08T02:42:03.393Z,84
2019-02-08T02:43:03.736Z,84.2
2019-02-08T02:44:03.412Z,83
2019-02-08T02:45:03.508Z,83.5
2019-02-08T02:46:02.888Z,83.7
2019-02-08T02:47:03.705Z,83.3
2019-02-08T02:48:03.442Z,83.7
2019-02-08T02:49:03.467Z,83
2019-02-08T02:50:03.097Z,83.3
2019-02-08T02:51:03.345Z,81.4
2019-02-08T02:52:02.860Z,81.9
2019-02-08T02:53:03.567Z,82.3
2019-02-08T02:54:05.354Z,80.9
2019-02-08T02:55:03.541Z,82.6
2019-02-08T02:56:03.312Z,82.3
2019-02-08T02:57:03.745Z,81.4
2019-02-08T02:58:03.154Z,81.9
2019-02-08T02:59:03.848Z,80.5
2019-02-08T03:00:03.444Z,82.3
2019-02-08T03:01:03.793Z,82.1
2019-02-08T03:02:03.594Z,81.9
2019-02-08T03:03:03.063Z,82.6
2019-02-08T03:04:03.143Z,80.2
2019-02-08T03:05:02.846Z,82.8
2019-02-08T03:06:03.323Z,82.8
2019-02-08T03:07:03.687Z,81.9
2019-02-08T03:08:02.746Z,84.4
2019-02-08T03:09:03.216Z,83.7
2019-02-08T03:10:03.478Z,83.3
2019-02-08T03:11:02.860Z,84
2019-02-08T03:12:02.783Z,83.7
2019-02-08T03:13:03.209Z,84.4
2019-02-08T03:14:03.580Z,83
2019-02-08T03:15:03.459Z,81.2
2019-02-08T03:16:02.870Z,81.4
2019-02-08T03:17:03.212Z,82.3
2019-02-08T03:18:03.593Z,80.9
2019-02-08T03:19:03.033Z,80.7
2019-02-08T03:20:03.343Z,80.2
2019-02-08T03:21:03.075Z,79.8
2019-02-08T03:22:03.676Z,80
2019-02-08T03:23:02.855Z,81.2
2019-02-08T03:24:03.711Z,81.9
2019-02-08T03:25:03.421Z,81.9
2019-02-08T03:26:03.996Z,82.3
2019-02-08T03:27:02.944Z,82.1
2019-02-08T03:28:03.681Z,83.5
2019-02-08T03:29:03.217Z,83.5
2019-02-08T03:30:03.658Z,83.3
2019-02-08T03:31:03.275Z,84.2
2019-02-08T03:32:03.621Z,82.6
2019-02-08T03:33:03.702Z,82.6
2019-02-08T03:34:03.018Z,82.3
2019-02-08T03:35:03.028Z,83.7
2019-02-08T03:36:03.733Z,83.3
2019-02-08T03:37:03.027Z,84.2
2019-02-08T03:38:03.688Z,82.6
2019-02-08T03:39:03.317Z,86.1
2019-02-08T03:40:03.447Z,85.8
2019-02-08T03:41:03.656Z,86.1
2019-02-08T03:42:03.574Z,86.1
2019-02-08T03:43:03.725Z,85.8
2019-02-08T03:44:03.066Z,85.8
2019-02-08T03:45:03.074Z,85.1
2019-02-08T03:46:03.792Z,85.8
2019-02-08T03:47:03.132Z,84.4
2019-02-08T03:48:03.654Z,85.4
2019-02-08T03:49:03.197Z,85.1
2019-02-08T03:50:03.134Z,85.6
2019-02-08T03:51:03.506Z,86.1
2019-02-08T03:52:03.171Z,87
2019-02-08T03:53:03.762Z,88.2
2019-02-08T03:54:03.151Z,87.9
2019-02-08T03:55:03.619Z,87.9
2019-02-08T03:56:03.448Z,88.4
2019-02-08T03:57:02.988Z,89.3
2019-02-08T03:58:03.674Z,89.3
2019-02-08T03:59:03.119Z,89.8
2019-02-08T04:00:03.587Z,91.4
2019-02-08T04:01:03.273Z,90
2019-02-08T04:02:03.872Z,89.1
2019-02-08T04:03:03.431Z,90
2019-02-08T04:04:03.041Z,87.9
2019-02-08T04:05:03.650Z,89.6
2019-02-08T04:06:02.988Z,90.5
2019-02-08T04:07:03.137Z,89.1
2019-02-08T04:08:03.687Z,90
2019-02-08T04:09:03.240Z,89.3
2019-02-08T04:10:03.235Z,88.6
2019-02-08T04:11:03.472Z,90.3
2019-02-08T04:12:02.873Z,90
2019-02-08T04:13:03.519Z,90.7
2019-02-08T04:14:03.333Z,91.7
2019-02-08T04:15:04.048Z,91
2019-02-08T04:16:03.455Z,92.1
2019-02-08T04:17:03.249Z,92.6
2019-02-08T04:18:03.343Z,91.9
2019-02-08T04:19:03.182Z,93.8
2019-02-08T04:20:03.810Z,93.1
2019-02-08T04:21:03.345Z,92.8
2019-02-08T04:22:03.760Z,92.4
2019-02-08T04:23:03.763Z,92.8
2019-02-08T04:24:03.584Z,91.4
2019-02-08T04:25:03.251Z,91.9
2019-02-08T04:26:03.491Z,89.8
2019-02-08T04:27:03.060Z,90.7
2019-02-08T04:28:03.773Z,90.7
2019-02-08T04:29:03.490Z,91
2019-02-08T04:30:03.018Z,91
2019-02-08T04:31:03.324Z,91.2
2019-02-08T04:32:03.025Z,91.2
2019-02-08T04:33:03.631Z,90.5
2019-02-08T04:34:03.038Z,90.3
2019-02-08T04:35:03.555Z,89.1
2019-02-08T04:36:03.042Z,88.6
2019-02-08T04:37:03.939Z,88.6
2019-02-08T04:38:03.006Z,85.8
2019-02-08T04:39:03.528Z,86.8
2019-02-08T04:40:03.274Z,86.1
2019-02-08T04:41:03.739Z,86.5
2019-02-08T04:42:03.418Z,86.5
2019-02-08T04:43:03.795Z,86.8
2019-02-08T04:44:03.008Z,86.8
2019-02-08T04:45:02.886Z,86.5
2019-02-08T04:46:03.454Z,86.1
2019-02-08T04:47:03.138Z,87
2019-02-08T04:48:03.690Z,87
2019-02-08T04:49:03.079Z,87.5
2019-02-08T04:50:03.254Z,87
2019-02-08T04:51:02.845Z,87.2
2019-02-08T04:52:03.486Z,85.6
2019-02-08T04:53:02.903Z,86.5
2019-02-08T04:54:03.417Z,84.9
2019-02-08T04:55:03.452Z,86.3
2019-02-08T04:56:03.641Z,83.3
2019-02-08T04:57:03.091Z,84.4
2019-02-08T04:58:03.798Z,85.4
2019-02-08T04:59:03.175Z,83.3
2019-02-08T05:00:03.871Z,84
2019-02-08T05:01:03.283Z,85.1
2019-02-08T05:02:03.879Z,85.8
2019-02-08T05:03:03.252Z,86.3
2019-02-08T05:04:02.987Z,87
2019-02-08T05:05:03.598Z,88.4
2019-02-08T05:06:02.954Z,89.3
2019-02-08T05:07:02.827Z,87.9
2019-02-08T05:08:03.263Z,88.4
2019-02-08T05:09:03.524Z,87.5
2019-02-08T05:10:03.398Z,87.2
2019-02-08T05:11:03.132Z,87.2
2019-02-08T05:12:03.239Z,86.5
2019-02-08T05:13:03.169Z,84.7
2019-02-08T05:14:03.709Z,84.9
2019-02-08T05:15:03.628Z,84.9
2019-02-08T05:16:02.833Z,87
2019-02-08T05:17:03.594Z,84.7
2019-02-08T05:18:03.520Z,85.8
2019-02-08T05:19:02.950Z,86.5
2019-02-08T05:20:03.551Z,83.7
2019-02-08T05:21:03.099Z,84.4
2019-02-08T05:22:03.702Z,85.1
2019-02-08T05:23:03.280Z,84.4
2019-02-08T05:24:03.882Z,84.9
2019-02-08T05:25:03.492Z,84.9
2019-02-08T05:26:03.756Z,87.7
2019-02-08T05:27:02.708Z,85.1
2019-02-08T05:28:03.791Z,87.5
2019-02-08T05:29:03.193Z,86.5
2019-02-08T05:30:03.869Z,86.3
2019-02-08T05:31:02.935Z,86.8
2019-02-08T05:32:03.419Z,86.3
2019-02-08T05:33:03.162Z,86.8
2019-02-08T05:34:03.392Z,87.5
2019-02-08T05:35:02.940Z,85.8
2019-02-08T05:36:03.625Z,88.4
2019-02-08T05:37:03.178Z,88.2
2019-02-08T05:38:03.820Z,89.6
2019-02-08T05:39:03.069Z,90.5
2019-02-08T05:40:03.614Z,91.4
2019-02-08T05:41:03.286Z,90.3
2019-02-08T05:42:03.887Z,91.4
2019-02-08T05:43:03.223Z,91.2
2019-02-08T05:44:03.626Z,91
2019-02-08T05:45:03.211Z,92.4
2019-02-08T05:46:02.990Z,92.1
2019-02-08T05:47:03.401Z,92.4
2019-02-08T05:48:02.955Z,93.1
2019-02-08T05:49:02.765Z,92.4
2019-02-08T05:50:03.307Z,92.6
2019-02-08T05:51:02.980Z,94.7
2019-02-08T05:52:03.773Z,92.1
2019-02-08T05:53:03.045Z,93.8
2019-02-08T05:54:03.378Z,94.5
2019-02-08T05:55:03.102Z,94.9
2019-02-08T05:56:03.673Z,92.8
2019-02-08T05:57:03.697Z,94.5
2019-02-08T05:58:03.470Z,94.9
2019-02-08T05:59:03.014Z,94.2
2019-02-08T06:00:03.513Z,93.8
2019-02-08T06:01:03.021Z,94
2019-02-08T06:02:02.873Z,92.8
2019-02-08T06:03:03.665Z,90.7
2019-02-08T06:04:02.919Z,88.9
2019-02-08T06:05:03.440Z,88.9
2019-02-08T06:06:03.410Z,88.2
2019-02-08T06:07:03.069Z,86.8
2019-02-08T06:08:03.539Z,87.7
2019-02-08T06:09:02.900Z,87.2
2019-02-08T06:10:03.240Z,88.4
2019-02-08T06:11:03.789Z,87.9
2019-02-08T06:12:03.106Z,89.3
2019-02-08T06:13:04.072Z,88.9
2019-02-08T06:14:03.355Z,89.6
2019-02-08T06:15:03.871Z,90
2019-02-08T06:16:03.183Z,89.3
2019-02-08T06:17:03.041Z,89.3
2019-02-08T06:18:02.998Z,90
2019-02-08T06:19:03.508Z,89.3
2019-02-08T06:20:03.055Z,89.6
2019-02-08T06:21:03.621Z,90.7
2019-02-08T06:22:03.018Z,90.7
2019-02-08T06:23:03.274Z,91.2
2019-02-08T06:24:03.789Z,89.1
2019-02-08T06:25:05.174Z,90.5
2019-02-08T06:26:02.943Z,90.3
2019-02-08T06:27:03.055Z,88.4
2019-02-08T06:28:03.391Z,88.9
2019-02-08T06:29:02.938Z,89.6
2019-02-08T06:30:03.245Z,90.3
2019-02-08T06:31:02.652Z,90.7
2019-02-08T06:32:03.222Z,90.3
2019-02-08T06:33:03.294Z,91
2019-02-08T06:34:03.625Z,92.1
2019-02-08T06:35:03.217Z,90.5
2019-02-08T06:36:03.643Z,92.8
2019-02-08T06:37:03.164Z,91.2
2019-02-08T06:38:03.600Z,92.1
2019-02-08T06:39:03.070Z,91.7
2019-02-08T06:40:03.715Z,91
2019-02-08T06:41:03.313Z,91.4
2019-02-08T06:42:03.330Z,91.2
2019-02-08T06:43:02.916Z,91
2019-02-08T06:44:03.343Z,91
2019-02-08T06:45:03.082Z,91.7
2019-02-08T06:46:03.430Z,91.7
2019-02-08T06:47:02.961Z,91
2019-02-08T06:48:03.676Z,89.8
2019-02-08T06:49:03.237Z,88.9
2019-02-08T06:50:03.623Z,88.2
2019-02-08T06:51:04.395Z,88.4
2019-02-08T06:52:03.625Z,87
2019-02-08T06:53:03.229Z,86.8
2019-02-08T06:54:03.587Z,87.5
2019-02-08T06:55:11.375Z,85.6
2019-02-08T06:56:03.368Z,86.8
2019-02-08T06:57:03.019Z,87.7
2019-02-08T06:58:03.540Z,87.5
2019-02-08T06:59:03.892Z,88.2
2019-02-08T07:00:03.688Z,88.4
2019-02-08T07:01:02.904Z,89.3
2019-02-08T07:02:03.467Z,90.7
2019-02-08T07:03:03.851Z,90.3
2019-02-08T07:04:03.366Z,91.4
2019-02-08T07:05:03.870Z,90.3
2019-02-08T07:06:03.401Z,90.5
2019-02-08T07:07:02.929Z,89.8
2019-02-08T07:08:03.251Z,89.8
2019-02-08T07:09:03.566Z,89.6
2019-02-08T07:10:02.820Z,89.8
2019-02-08T07:11:03.433Z,87.7
2019-02-08T07:12:03.217Z,89.6
2019-02-08T07:13:03.627Z,87.7
2019-02-08T07:14:02.733Z,87.7
2019-02-08T07:15:03.420Z,86.5
2019-02-08T07:16:03.588Z,86.8
2019-02-08T07:17:03.267Z,86.5
2019-02-08T07:18:03.890Z,85.4
2019-02-08T07:19:03.369Z,83.5
2019-02-08T07:20:03.686Z,84.7
2019-02-08T07:21:03.158Z,84.9
2019-02-08T07:22:03.637Z,86.1
2019-02-08T07:23:03.307Z,84.7
2019-02-08T07:24:03.468Z,85.4
2019-02-08T07:25:03.078Z,85.1
2019-02-08T07:26:03.564Z,85.1
2019-02-08T07:27:03.057Z,86.8
2019-02-08T07:28:03.582Z,85.1
2019-02-08T07:29:03.227Z,84.9
2019-02-08T07:30:03.616Z,84.4
2019-02-08T07:31:03.225Z,83.7
2019-02-08T07:32:03.560Z,83.3
2019-02-08T07:33:02.783Z,82.8
2019-02-08T07:34:03.586Z,83
2019-02-08T07:35:03.015Z,82.6
2019-02-08T07:36:03.392Z,81.6
2019-02-08T07:37:03.184Z,80.5
2019-02-08T07:38:03.182Z,80.7
2019-02-08T07:39:02.931Z,80.7
2019-02-08T07:40:03.419Z,80.7
2019-02-08T07:41:03.792Z,80.5
2019-02-08T07:42:03.445Z,80.9
2019-02-08T07:43:03.762Z,79.1
2019-02-08T07:44:01.981Z,79.1
2019-02-08T07:45:03.721Z,79.1
2019-02-08T07:46:03.009Z,78.6
2019-02-08T07:47:03.539Z,78.6
2019-02-08T07:48:02.904Z,78.8
2019-02-08T07:49:03.632Z,79.8
2019-02-08T07:50:03.794Z,81.9
2019-02-08T07:51:03.301Z,81.2
2019-02-08T07:52:03.423Z,83
2019-02-08T07:53:03.227Z,81.9
2019-02-08T07:54:03.738Z,81.2
2019-02-08T07:55:03.128Z,78.8
2019-02-08T07:56:03.570Z,78.6
2019-02-08T07:57:02.869Z,78.4
2019-02-08T07:58:03.390Z,77
2019-02-08T07:59:03.680Z,77.2
2019-02-08T08:00:03.209Z,77.4
2019-02-08T08:01:02.988Z,77.7
2019-02-08T08:02:03.497Z,77.2
2019-02-08T08:03:02.913Z,77.7
2019-02-08T08:04:03.394Z,78.6
2019-02-08T08:05:03.953Z,79.1
2019-02-08T08:06:03.302Z,79.8
2019-02-08T08:07:03.598Z,79.1
2019-02-08T08:08:03.159Z,79.3
2019-02-08T08:09:02.970Z,81.2
2019-02-08T08:10:03.331Z,79.5
2019-02-08T08:11:03.878Z,81.4
2019-02-08T08:12:03.419Z,81.2
2019-02-08T08:13:03.330Z,81.2
2019-02-08T08:14:02.964Z,81.6
2019-02-08T08:15:03.463Z,82.1
2019-02-08T08:16:02.907Z,82.8
2019-02-08T08:17:03.471Z,82.6
2019-02-08T08:18:02.666Z,82.3
2019-02-08T08:19:03.443Z,82.6
2019-02-08T08:20:02.868Z,83.5
2019-02-08T08:21:03.544Z,83
2019-02-08T08:22:03.795Z,84.2
2019-02-08T08:23:03.308Z,83
2019-02-08T08:24:03.559Z,84.9
2019-02-08T08:25:03.117Z,83.3
2019-02-08T08:26:03.481Z,84.7
2019-02-08T08:27:02.929Z,85.4
2019-02-08T08:28:03.500Z,84.2
2019-02-08T08:29:02.922Z,86.3
2019-02-08T08:30:03.465Z,86.3
2019-02-08T08:31:03.532Z,87.2
2019-02-08T08:32:03.191Z,87.2
2019-02-08T08:33:03.560Z,88.2
2019-02-08T08:34:02.959Z,87.2
2019-02-08T08:35:03.247Z,88.4
2019-02-08T08:36:03.669Z,87.7
2019-02-08T08:37:03.066Z,86.1
2019-02-08T08:38:03.523Z,87
2019-02-08T08:39:03.024Z,86.8
2019-02-08T08:40:03.743Z,86.5
2019-02-08T08:41:02.999Z,87.7
2019-02-08T08:42:03.086Z,87.9
2019-02-08T08:43:02.922Z,87.7
2019-02-08T08:44:02.891Z,88.9
2019-02-08T08:45:03.767Z,90.3
2019-02-08T08:46:02.956Z,89.1
2019-02-08T08:47:03.743Z,91
2019-02-08T08:48:02.878Z,89.1
2019-02-08T08:49:03.357Z,88.9
2019-02-08T08:50:02.794Z,88.9
2019-02-08T08:51:03.710Z,87
2019-02-08T08:52:03.234Z,88.4
2019-02-08T08:53:03.496Z,90.3
2019-02-08T08:54:02.856Z,90
2019-02-08T08:55:03.345Z,91.4
2019-02-08T08:56:03.925Z,93.1
2019-02-08T08:57:03.024Z,94
2019-02-08T08:58:02.712Z,91.9
2019-02-08T08:59:03.435Z,91.2
2019-02-08T09:00:02.898Z,91.2
2019-02-08T09:01:03.295Z,89.8
2019-02-08T09:02:03.676Z,89.6
2019-02-08T09:03:03.788Z,88.4
2019-02-08T09:04:02.995Z,88.4
2019-02-08T09:05:03.558Z,87.9
2019-02-08T09:06:09.203Z,89.3
2019-02-08T09:07:03.882Z,87.9
2019-02-08T09:08:03.094Z,88.9
2019-02-08T09:09:03.345Z,89.3
2019-02-08T09:10:03.337Z,88.6
2019-02-08T09:11:03.585Z,88.2
2019-02-08T09:12:03.051Z,87.9
2019-02-08T09:13:03.436Z,86.5
2019-02-08T09:14:02.902Z,86.5
2019-02-08T09:15:03.329Z,85.6
2019-02-08T09:16:03.150Z,85.4
2019-02-08T09:17:03.422Z,85.4
2019-02-08T09:18:02.913Z,86.3
2019-02-08T09:19:03.517Z,85.1
2019-02-08T09:20:03.106Z,86.1
2019-02-08T09:21:03.506Z,86.5
2019-02-08T09:22:03.038Z,85.6
2019-02-08T09:23:03.334Z,85.6
2019-02-08T09:24:02.963Z,86.5
2019-02-08T09:25:03.322Z,84.4
2019-02-08T09:26:02.704Z,85.1
2019-02-08T09:27:03.237Z,86.3
2019-02-08T09:28:03.170Z,85.1
2019-02-08T09:29:03.202Z,84.9
2019-02-08T09:30:03.213Z,86.3
2019-02-08T09:31:03.343Z,84.9
2019-02-08T09:32:03.421Z,86.1
2019-02-08T09:33:03.390Z,84.7
2019-02-08T09:34:03.216Z,83.7
2019-02-08T09:35:03.070Z,85.1
2019-02-08T09:36:03.007Z,86.3
2019-02-08T09:37:03.486Z,85.8
2019-02-08T09:38:03.625Z,87.2
2019-02-08T09:39:02.693Z,86.5
2019-02-08T09:40:03.618Z,87
2019-02-08T09:41:03.168Z,86.5
2019-02-08T09:42:03.509Z,86.1
2019-02-08T09:43:03.026Z,85.1
2019-02-08T09:44:03.549Z,84.9
2019-02-08T09:45:03.463Z,84.9
2019-02-08T09:46:03.234Z,83.7
2019-02-08T09:47:03.644Z,86.1
2019-02-08T09:48:03.045Z,84.2
2019-02-08T09:49:03.818Z,84.7
2019-02-08T09:50:03.142Z,84.9
2019-02-08T09:51:02.738Z,83
2019-02-08T09:52:03.658Z,83.3
2019-02-08T09:53:03.558Z,84.4
2019-02-08T09:54:03.553Z,82.3
2019-02-08T09:55:03.510Z,80.9
2019-02-08T09:56:03.029Z,82.8
2019-02-08T09:57:03.666Z,82.6
2019-02-08T09:58:02.962Z,82.3
2019-02-08T09:59:03.428Z,82.1
2019-02-08T10:00:03.766Z,83.7
2019-02-08T10:01:03.461Z,83.3
2019-02-08T10:02:02.674Z,84.4
2019-02-08T10:03:03.361Z,85.1
2019-02-08T10:04:02.867Z,84.2
2019-02-08T10:05:03.906Z,84.4
2019-02-08T10:06:02.899Z,85.4
2019-02-08T10:07:02.718Z,85.1
2019-02-08T10:08:03.106Z,83
2019-02-08T10:09:03.728Z,84.9
2019-02-08T10:10:03.342Z,84.2
2019-02-08T10:11:03.535Z,83.7
2019-02-08T10:12:02.966Z,85.1
2019-02-08T10:13:03.388Z,85.1
2019-02-08T10:14:03.177Z,85.8
2019-02-08T10:15:04.266Z,85.8
2019-02-08T10:16:03.169Z,85.1
2019-02-08T10:17:03.741Z,85.8
2019-02-08T10:18:03.368Z,87
2019-02-08T10:19:03.806Z,85.1
2019-02-08T10:20:03.260Z,86.1
2019-02-08T10:21:02.970Z,84.9
2019-02-08T10:22:03.102Z,85.6
2019-02-08T10:23:03.586Z,84.7
2019-02-08T10:24:02.760Z,85.6
2019-02-08T10:25:03.692Z,84
2019-02-08T10:26:05.873Z,82.6
2019-02-08T10:27:02.829Z,83.3
2019-02-08T10:28:03.027Z,81.9
2019-02-08T10:29:03.340Z,81.2
2019-02-08T10:30:02.041Z,81.2
2019-02-08T10:31:03.747Z,81.4
2019-02-08T10:32:03.499Z,83
2019-02-08T10:33:03.028Z,81.6
2019-02-08T10:34:03.485Z,80.9
2019-02-08T10:35:03.181Z,81.9
2019-02-08T10:36:03.824Z,83
2019-02-08T10:37:03.124Z,83.3
2019-02-08T10:38:03.004Z,83.3
2019-02-08T10:39:03.701Z,82.6
2019-02-08T10:40:03.115Z,84
2019-02-08T10:41:03.505Z,82.3
2019-02-08T10:42:03.061Z,82.8
2019-02-08T10:43:03.826Z,83
2019-02-08T10:44:03.954Z,83
2019-02-08T10:45:03.538Z,83.5
2019-02-08T10:46:02.882Z,84
2019-02-08T10:47:03.461Z,82.8
2019-02-08T10:48:02.666Z,85.4
2019-02-08T10:49:03.138Z,84
2019-02-08T10:50:03.750Z,85.8
2019-02-08T10:51:03.603Z,85.4
2019-02-08T10:52:03.012Z,86.3
2019-02-08T10:53:03.635Z,87
2019-02-08T10:54:03.094Z,85.4
2019-02-08T10:55:03.618Z,86.3
2019-02-08T10:56:03.146Z,87.5
2019-02-08T10:57:03.091Z,87.9
2019-02-08T10:58:02.794Z,89.1
2019-02-08T10:59:03.559Z,87.5
2019-02-08T11:00:03.236Z,89.8
2019-02-08T11:01:03.571Z,87.9
2019-02-08T11:02:02.870Z,90
2019-02-08T11:03:03.298Z,89.8
2019-02-08T11:04:03.078Z,88.6
2019-02-08T11:05:03.674Z,88.2
2019-02-08T11:06:03.239Z,90.5
2019-02-08T11:07:03.572Z,87.9
2019-02-08T11:08:03.220Z,89.6
2019-02-08T11:09:03.618Z,89.6
2019-02-08T11:10:03.134Z,89.6
2019-02-08T11:11:03.490Z,89.8
2019-02-08T11:12:03.160Z,90.7
2019-02-08T11:13:03.510Z,89.6
2019-02-08T11:14:02.752Z,91.7
2019-02-08T11:15:03.227Z,91.4
2019-02-08T11:16:03.244Z,92.8
2019-02-08T11:17:03.442Z,92.1
2019-02-08T11:18:03.170Z,92.6
2019-02-08T11:19:03.636Z,91
2019-02-08T11:20:03.446Z,92.8
2019-02-08T11:21:02.864Z,91
2019-02-08T11:22:03.346Z,92.6
2019-02-08T11:23:03.745Z,90.7
2019-02-08T11:24:03.398Z,92.4
2019-02-08T11:25:03.000Z,91.2
2019-02-08T11:26:03.478Z,91
2019-02-08T11:27:02.896Z,93.3
2019-02-08T11:28:03.340Z,93.1
2019-02-08T11:29:03.743Z,94.7
2019-02-08T11:30:03.499Z,94.5
2019-02-08T11:31:03.306Z,94.9
2019-02-08T11:32:03.346Z,95.4
2019-02-08T11:33:03.170Z,95.4
2019-02-08T11:34:03.901Z,95.6
2019-02-08T11:35:03.085Z,95.4
2019-02-08T11:36:03.054Z,96.8
2019-02-08T11:37:03.422Z,94.7
2019-02-08T11:38:03.008Z,95.6
2019-02-08T11:39:03.186Z,94.2
2019-02-08T11:40:03.890Z,96.1
2019-02-08T11:41:03.216Z,95.2
2019-02-08T11:42:02.960Z,94.9
2019-02-08T11:43:03.414Z,96.1
2019-02-08T11:44:03.737Z,96.1
2019-02-08T11:45:03.458Z,95.6
2019-02-08T11:46:02.853Z,97.7
2019-02-08T11:47:03.406Z,94.2
2019-02-08T11:48:03.692Z,97.3
2019-02-08T11:49:03.265Z,95.9
2019-02-08T11:50:03.727Z,94.7
2019-02-08T11:51:03.533Z,95.6
2019-02-08T11:52:03.077Z,96.8
2019-02-08T11:53:03.530Z,94.2
2019-02-08T11:54:03.020Z,94.2
2019-02-08T11:55:03.793Z,93.8
2019-02-08T11:56:02.999Z,94.7
2019-02-08T11:57:03.728Z,92.6
2019-02-08T11:58:03.303Z,94.2
2019-02-08T11:59:03.772Z,92.1
2019-02-08T12:00:03.351Z,91.9
2019-02-08T12:01:02.949Z,92.1
2019-02-08T12:02:03.297Z,92.1
2019-02-08T12:03:02.815Z,92.4
2019-02-08T12:04:03.767Z,92.1
2019-02-08T12:05:03.693Z,92.8
2019-02-08T12:06:02.909Z,92.8
2019-02-08T12:07:03.663Z,92.8
2019-02-08T12:08:02.886Z,94.2
2019-02-08T12:09:03.656Z,93.1
2019-02-08T12:10:03.180Z,93.1
2019-02-08T12:11:03.365Z,92.4
2019-02-08T12:12:02.911Z,92.4
2019-02-08T12:13:03.331Z,91.9
2019-02-08T12:14:03.668Z,90.7
2019-02-08T12:15:03.440Z,91.4
2019-02-08T12:16:03.845Z,91
2019-02-08T12:17:03.284Z,90.7
2019-02-08T12:18:03.408Z,91.4
2019-02-08T12:19:02.960Z,91.4
2019-02-08T12:20:03.626Z,92.4
2019-02-08T12:21:03.141Z,92.6
2019-02-08T12:22:03.501Z,92.1
2019-02-08T12:23:03.706Z,93.5
2019-02-08T12:24:03.337Z,94
2019-02-08T12:25:03.715Z,94.2
2019-02-08T12:26:03.099Z,93.3
2019-02-08T12:27:03.758Z,93.1
2019-02-08T12:28:03.068Z,93.5
2019-02-08T12:29:03.396Z,92.8
2019-02-08T12:30:03.800Z,92.4
2019-02-08T12:31:03.214Z,93.1
2019-02-08T12:32:02.827Z,91.9
2019-02-08T12:33:03.381Z,93.3
2019-02-08T12:34:03.754Z,92.8
2019-02-08T12:35:03.006Z,92.1
2019-02-08T12:36:03.378Z,93.1
2019-02-08T12:37:03.678Z,91.9
2019-02-08T12:38:03.385Z,93.3
2019-02-08T12:39:05.243Z,93.1
2019-02-08T12:40:03.533Z,91.9
2019-02-08T12:41:10.278Z,93.3
2019-02-08T12:42:03.173Z,90.7
2019-02-08T12:43:03.718Z,91.2
2019-02-08T12:44:03.260Z,92.4
2019-02-08T12:45:03.402Z,91
2019-02-08T12:46:03.301Z,93.3
2019-02-08T12:47:03.149Z,91.7
2019-02-08T12:48:02.918Z,92.4
2019-02-08T12:49:03.280Z,91.9
2019-02-08T12:50:02.959Z,89.8
2019-02-08T12:51:03.819Z,92.8
2019-02-08T12:52:03.003Z,92.1
2019-02-08T12:53:03.577Z,92.8
2019-02-08T12:54:02.960Z,93.5
2019-02-08T12:55:03.266Z,93.5
2019-02-08T12:56:03.614Z,94.5
2019-02-08T12:57:03.267Z,91.9
2019-02-08T12:58:03.562Z,93.3
2019-02-08T12:59:03.125Z,92.4
2019-02-08T13:00:03.534Z,91
2019-02-08T13:01:03.109Z,92.1
2019-02-08T13:02:03.127Z,92.1
2019-02-08T13:03:03.729Z,91
2019-02-08T13:04:03.700Z,91.9
2019-02-08T13:05:03.027Z,91.7
2019-02-08T13:06:03.414Z,91.2
2019-02-08T13:07:03.789Z,92.4
2019-02-08T13:08:03.256Z,92.4
2019-02-08T13:09:03.585Z,91.9
2019-02-08T13:10:03.382Z,92.8
2019-02-08T13:11:02.987Z,93.3
2019-02-08T13:12:03.165Z,93.8
2019-02-08T13:13:03.341Z,94.7
2019-02-08T13:14:02.921Z,94
2019-02-08T13:15:03.623Z,94.7
2019-02-08T13:16:02.738Z,95.4
2019-02-08T13:17:03.590Z,94.7
2019-02-08T13:18:02.803Z,94
2019-02-08T13:19:03.043Z,93.1
2019-02-08T13:20:03.418Z,93.3
2019-02-08T13:21:03.036Z,93.5
2019-02-08T13:22:03.746Z,93.8
2019-02-08T13:23:03.747Z,92.8